CheckWX is a tool to help pilots better visualize weather data.  It is not intended as a substitute for an official pre-flight weather briefing.

09:29:53 UTC

K7BM METAR
Cottonwood Pass Airport
Cottonwood Pass, Colorado, USA
Current

24 mins ago

K7BM 210906Z AUTO 27009G14KT 10SM CLR 08/M10 A3021 RMK AO2
Observed
Sep-21 @ 09:06 UTC
Wind
  • 270° at 9 KTS
  • Gusting to 14 KTS
Visibility
10 SM
Flight Rules
VFR
Cloud Levels
  • Clear skies
Temperature
C / 46°F
Dewpoint
-10°C / 14°F
Humidity
27%
Altimeter
30.21" Hg
Pressure
1023.02 hPa
Previous

41 mins ago

K7BM 210849Z AUTO 24009G15KT 10SM CLR 08/M10 A3021 RMK AO2
Observed
Sep-21 @ 08:49 UTC
Wind
  • 240° at 9 KTS
  • Gusting to 15 KTS
Visibility
10 SM
Flight Rules
VFR
Cloud Levels
  • Clear skies
Temperature
C / 46°F
Dewpoint
-10°C / 14°F
Humidity
27%
Altimeter
30.21" Hg
Pressure
1023.02 hPa
Previous

59 mins ago

K7BM 210831Z AUTO 24010G15KT 10SM CLR 08/M10 A3021 RMK AO2
Observed
Sep-21 @ 08:31 UTC
Wind
  • 240° at 10 KTS
  • Gusting to 15 KTS
Visibility
10 SM
Flight Rules
VFR
Cloud Levels
  • Clear skies
Temperature
C / 46°F
Dewpoint
-10°C / 14°F
Humidity
27%
Altimeter
30.21" Hg
Pressure
1023.02 hPa